createdAt,value
2022-08-17T00:01:52.299Z,95016.34
2022-08-17T00:04:21.709Z,94934.56
2022-08-17T00:06:50.751Z,95010.25
2022-08-17T00:09:19.550Z,95001.72
2022-08-17T00:12:40.661Z,95022.38
2022-08-17T00:14:38.656Z,95023.22
2022-08-17T00:17:07.122Z,95017.44
2022-08-17T00:19:35.359Z,94987.38
2022-08-17T00:22:32.141Z,95007.28
2022-08-17T00:24:54.631Z,94996.38
2022-08-17T00:27:22.574Z,95015.13
2022-08-17T00:29:51.978Z,94880.91
2022-08-17T00:33:12.287Z,95012.38
2022-08-17T00:35:11.191Z,95014.72
2022-08-17T00:37:39.131Z,95010.44
2022-08-17T00:40:09.121Z,95008.09
2022-08-17T00:42:37.900Z,95004.19
2022-08-17T00:45:08.720Z,94962.00
2022-08-17T00:47:36.692Z,94996.34
2022-08-17T00:50:06.165Z,94992.47
2022-08-17T00:52:38.718Z,94969.84
2022-08-17T00:55:09.293Z,94997.94
2022-08-17T00:57:40.465Z,95003.41
2022-08-17T01:00:15.479Z,95002.63
2022-08-17T01:02:47.062Z,95005.75
2022-08-17T01:05:25.413Z,94996.34
2022-08-17T01:07:55.273Z,95004.56
2022-08-17T01:10:57.538Z,95009.28
2022-08-17T01:13:17.569Z,94977.66
2022-08-17T01:15:50.750Z,94962.06
2022-08-17T01:18:18.788Z,94933.56
2022-08-17T01:20:49.734Z,94881.31
2022-08-17T01:23:21.766Z,94878.56
2022-08-17T01:25:52.167Z,95009.63
2022-08-17T01:28:33.638Z,95004.94
2022-08-17T01:31:09.935Z,95004.19
2022-08-17T01:33:38.555Z,94998.75
2022-08-17T01:36:08.364Z,94997.94
2022-08-17T01:38:38.878Z,94987.03
2022-08-17T01:41:11.261Z,95000.69
2022-08-17T01:43:43.817Z,94993.25
2022-08-17T01:46:17.160Z,94994.03
2022-08-17T01:48:47.477Z,94992.47
2022-08-17T01:51:16.659Z,94966.72
2022-08-17T01:53:49.589Z,94993.25
2022-08-17T01:56:20.980Z,94996.38
2022-08-17T01:58:50.081Z,94994.03
2022-08-17T02:01:19.159Z,95002.63
2022-08-17T02:03:53.169Z,95006.56
2022-08-17T02:06:29.444Z,95010.44
2022-08-17T02:09:03.245Z,94903.91
2022-08-17T02:11:32.887Z,95015.94
2022-08-17T02:14:03.602Z,94979.25
2022-08-17T02:16:37.130Z,95030.00
2022-08-17T02:19:08.276Z,94981.59
2022-08-17T02:21:37.049Z,94933.19
2022-08-17T02:24:09.724Z,95017.47
2022-08-17T02:26:37.893Z,95014.38
2022-08-17T02:29:06.000Z,95006.56
2022-08-17T02:31:35.665Z,94918.38
2022-08-17T02:34:05.343Z,94904.69
2022-08-17T02:36:35.008Z,95009.28
2022-08-17T02:39:03.892Z,95008.50
2022-08-17T02:41:33.331Z,95010.47
2022-08-17T02:44:01.564Z,95002.66
2022-08-17T02:46:30.507Z,95022.97
2022-08-17T02:48:58.438Z,95018.28
2022-08-17T02:51:26.814Z,95022.59
2022-08-17T02:54:35.772Z,95019.06
2022-08-17T02:56:44.289Z,95017.47
2022-08-17T02:59:12.198Z,95025.63
2022-08-17T03:01:40.472Z,94992.03
2022-08-17T03:04:08.496Z,94992.81
2022-08-17T03:06:37.446Z,95032.69
2022-08-17T03:09:06.032Z,95025.63
2022-08-17T03:11:34.012Z,95028.31
2022-08-17T03:14:03.344Z,95026.00
2022-08-17T03:16:31.292Z,94899.75
2022-08-17T03:18:59.185Z,95032.66
2022-08-17T03:21:27.216Z,95041.63
2022-08-17T03:23:58.153Z,95036.56
2022-08-17T03:26:28.765Z,94984.56
2022-08-17T03:28:57.780Z,95036.50
2022-08-17T03:31:27.073Z,95040.81
2022-08-17T03:33:55.005Z,95018.94
2022-08-17T03:36:22.953Z,95045.09
2022-08-17T03:38:51.130Z,95044.75
2022-08-17T03:41:19.093Z,95043.97
2022-08-17T03:43:47.038Z,95049.41
2022-08-17T03:46:35.170Z,94945.47
2022-08-17T03:49:24.361Z,94991.94
2022-08-17T03:52:18.385Z,95046.66
2022-08-17T03:55:04.302Z,95046.28
2022-08-17T03:57:33.183Z,95019.72
2022-08-17T04:00:01.172Z,95063.88
2022-08-17T04:02:32.203Z,95057.25
2022-08-17T04:05:01.952Z,95064.25
2022-08-17T04:07:31.775Z,95058.78
2022-08-17T04:09:59.853Z,95058.81
2022-08-17T04:12:30.844Z,95066.66
2022-08-17T04:14:59.479Z,95065.13
2022-08-17T04:17:30.068Z,95067.47
2022-08-17T04:19:58.518Z,95033.03
2022-08-17T04:22:33.121Z,95081.56
2022-08-17T04:25:09.653Z,95078.03
2022-08-17T04:27:37.841Z,94987.41
2022-08-17T04:30:07.324Z,95067.19
2022-08-17T04:33:03.604Z,95069.72
2022-08-17T04:35:36.784Z,94932.53
2022-08-17T04:38:06.728Z,95006.22
2022-08-17T04:40:52.329Z,95093.97
2022-08-17T04:43:21.873Z,95094.06
2022-08-17T04:45:55.422Z,95048.06
2022-08-17T04:48:34.799Z,95092.38
2022-08-17T04:51:04.469Z,94846.69
2022-08-17T04:53:33.906Z,95087.81
2022-08-17T04:56:02.034Z,95029.56
2022-08-17T04:58:29.953Z,95097.69
2022-08-17T05:00:58.762Z,95082.94
2022-08-17T05:03:26.929Z,95039.03
2022-08-17T05:05:54.984Z,95097.25
2022-08-17T05:08:23.091Z,95004.66
2022-08-17T05:10:52.515Z,95097.41
2022-08-17T05:13:22.289Z,95093.34
2022-08-17T05:15:54.942Z,95107.69
2022-08-17T05:18:24.605Z,95065.97
2022-08-17T05:20:53.167Z,95094.47
2022-08-17T05:23:22.685Z,95102.59
2022-08-17T05:25:56.348Z,95093.25
2022-08-17T05:28:28.004Z,95106.84
2022-08-17T05:31:01.263Z,95113.84
2022-08-17T05:33:31.963Z,95113.63
2022-08-17T05:36:01.073Z,95109.41
2022-08-17T05:38:31.240Z,95110.06
2022-08-17T05:41:05.503Z,95116.19
2022-08-17T05:43:35.577Z,95102.16
2022-08-17T05:46:12.066Z,95083.94
2022-08-17T05:48:42.788Z,95069.81
2022-08-17T05:51:23.577Z,94993.75
2022-08-17T05:54:10.598Z,95096.03
2022-08-17T05:57:08.903Z,95105.97
2022-08-17T05:59:50.104Z,95112.41
2022-08-17T06:02:37.759Z,95112.44
2022-08-17T06:05:20.953Z,95116.94
2022-08-17T06:07:58.865Z,95110.38
2022-08-17T06:10:33.553Z,95113.09
2022-08-17T06:13:16.067Z,95111.75
2022-08-17T06:15:56.432Z,95042.91
2022-08-17T06:18:31.026Z,95105.94
2022-08-17T06:21:02.619Z,95007.50
2022-08-17T06:23:36.720Z,95058.41
2022-08-17T06:26:12.614Z,95035.50
2022-08-17T06:28:50.557Z,94949.16
2022-08-17T06:31:27.448Z,95072.41
2022-08-17T06:33:55.837Z,95086.41
2022-08-17T06:36:40.194Z,95103.31
2022-08-17T06:39:26.597Z,95081.66
2022-08-17T06:42:06.565Z,95091.03
2022-08-17T06:44:43.723Z,95106.78
2022-08-17T06:47:28.880Z,95065.81
2022-08-17T06:50:07.164Z,95105.50
2022-08-17T06:52:46.281Z,95101.44
2022-08-17T06:55:21.444Z,95100.81
2022-08-17T06:57:53.647Z,95099.16
2022-08-17T07:00:27.743Z,95049.22
2022-08-17T07:03:00.372Z,95097.97
2022-08-17T07:05:33.896Z,95094.56
2022-08-17T07:08:09.313Z,95062.88
2022-08-17T07:10:42.726Z,95084.16
2022-08-17T07:13:30.676Z,95044.22
2022-08-17T07:16:15.461Z,95070.84
2022-08-17T07:18:44.278Z,95113.53
2022-08-17T07:21:27.294Z,95062.22
2022-08-17T07:24:29.737Z,95104.94
2022-08-17T07:27:11.998Z,95098.41
2022-08-17T07:29:44.016Z,95062.25
2022-08-17T07:32:17.989Z,95060.44
2022-08-17T07:35:15.181Z,95093.88
2022-08-17T07:37:53.227Z,95070.03
2022-08-17T07:40:33.454Z,95094.44
2022-08-17T07:43:23.078Z,95060.88
2022-08-17T07:46:33.727Z,95089.47
2022-08-17T07:49:22.809Z,95083.63
2022-08-17T07:52:47.522Z,95084.53
2022-08-17T07:54:51.065Z,95089.75
2022-08-17T07:57:33.760Z,95014.78
2022-08-17T08:00:19.632Z,95079.22
2022-08-17T08:03:17.553Z,95088.72
2022-08-17T08:05:54.869Z,95082.56
2022-08-17T08:08:28.229Z,94978.06
2022-08-17T08:11:06.332Z,95045.84
2022-08-17T08:13:35.309Z,95081.53
2022-08-17T08:16:25.385Z,94984.06
2022-08-17T08:18:57.790Z,95085.34
2022-08-17T08:21:43.808Z,94970.53
2022-08-17T08:24:41.423Z,95079.91
2022-08-17T08:27:22.976Z,95041.91
2022-08-17T08:29:58.072Z,95062.00
2022-08-17T08:32:38.522Z,94978.69
2022-08-17T08:35:10.357Z,95058.41
2022-08-17T08:37:49.486Z,95057.53
2022-08-17T08:40:38.359Z,95068.66
2022-08-17T08:43:17.533Z,94979.19
2022-08-17T08:45:56.614Z,95068.31
2022-08-17T08:48:56.083Z,95064.63
2022-08-17T08:51:37.483Z,95056.81
2022-08-17T08:54:16.128Z,95053.94
2022-08-17T08:57:19.873Z,95057.88
2022-08-17T08:59:57.624Z,95049.31
2022-08-17T09:02:47.917Z,95028.63
2022-08-17T09:05:27.132Z,95052.63
2022-08-17T09:08:04.672Z,95053.41
2022-08-17T09:10:55.952Z,95019.75
2022-08-17T09:13:34.568Z,95039.91
2022-08-17T09:16:10.032Z,95045.25
2022-08-17T09:19:00.123Z,95007.03
2022-08-17T09:21:38.229Z,94689.47
2022-08-17T09:24:24.184Z,95037.09
2022-08-17T09:26:59.015Z,95012.44
2022-08-17T09:29:30.584Z,95046.44
2022-08-17T09:32:03.721Z,95043.13
2022-08-17T09:34:43.498Z,95032.75
2022-08-17T09:37:23.914Z,94842.25
2022-08-17T09:40:10.732Z,94999.41
2022-08-17T09:42:48.866Z,95030.06
2022-08-17T09:45:28.027Z,94964.47
2022-08-17T09:48:01.318Z,94989.53
2022-08-17T09:51:03.183Z,95030.81
2022-08-17T09:53:24.473Z,95040.34
2022-08-17T09:56:18.546Z,95029.13
2022-08-17T09:59:03.854Z,95016.25
2022-08-17T10:01:39.903Z,94970.19
2022-08-17T10:04:36.844Z,95024.38
2022-08-17T10:07:11.314Z,95022.44
2022-08-17T10:09:56.289Z,94953.25
2022-08-17T10:12:35.723Z,95011.25
2022-08-17T10:15:18.868Z,94991.50
2022-08-17T10:18:10.170Z,95008.97
2022-08-17T10:20:47.682Z,95009.44
2022-08-17T10:23:40.261Z,95010.41
2022-08-17T10:26:16.313Z,95005.31
2022-08-17T10:28:51.073Z,94995.75
2022-08-17T10:31:34.674Z,94955.84
2022-08-17T10:34:29.805Z,94999.34
2022-08-17T10:37:16.792Z,94975.19
2022-08-17T10:39:52.478Z,95000.25
2022-08-17T10:42:30.798Z,94971.63
2022-08-17T10:45:07.251Z,94950.00
2022-08-17T10:48:06.651Z,94986.66
2022-08-17T10:50:49.499Z,94977.34
2022-08-17T10:53:52.360Z,94974.06
2022-08-17T10:56:43.176Z,94982.13
2022-08-17T10:59:31.163Z,94980.00
2022-08-17T11:02:13.990Z,94977.47
2022-08-17T11:04:57.329Z,94973.75
2022-08-17T11:07:43.867Z,94931.78
2022-08-17T11:10:37.802Z,94969.81
2022-08-17T11:13:11.107Z,94974.34
2022-08-17T11:15:52.485Z,94968.94
2022-08-17T11:18:55.971Z,94948.53
2022-08-17T11:21:56.652Z,94951.84
2022-08-17T11:24:34.488Z,94976.38
2022-08-17T11:27:12.275Z,94894.25
2022-08-17T11:29:56.874Z,94977.53
2022-08-17T11:32:34.128Z,94983.06
2022-08-17T11:35:29.693Z,94987.41
2022-08-17T11:38:16.711Z,94962.22
2022-08-17T11:41:06.709Z,94993.66
2022-08-17T11:44:02.009Z,94976.00
2022-08-17T11:46:57.342Z,94927.03
2022-08-17T11:49:55.006Z,94998.44
2022-08-17T11:52:42.276Z,94943.91
2022-08-17T11:55:53.943Z,95011.59
2022-08-17T11:58:38.405Z,94991.31
2022-08-17T12:01:07.429Z,95011.66
2022-08-17T12:03:57.027Z,94997.34
2022-08-17T12:06:47.809Z,95013.50
2022-08-17T12:09:20.004Z,94979.19
2022-08-17T12:12:13.223Z,95020.56
2022-08-17T12:17:40.093Z,95011.94
2022-08-17T12:20:16.173Z,94990.94
2022-08-17T12:22:55.019Z,95010.84
2022-08-17T12:25:33.211Z,95016.41
2022-08-17T12:28:06.120Z,94943.56
2022-08-17T12:30:37.255Z,95006.25
2022-08-17T12:33:12.441Z,95006.47
2022-08-17T12:35:40.461Z,95004.19
2022-08-17T12:38:33.174Z,94989.91
2022-08-17T12:40:59.851Z,94895.56
2022-08-17T12:43:32.918Z,94880.66
2022-08-17T12:59:33.231Z,94984.69
2022-08-17T13:02:02.170Z,94946.16
2022-08-17T13:04:30.322Z,94984.53
2022-08-17T13:07:00.153Z,94979.69
2022-08-17T13:09:35.299Z,94945.84
2022-08-17T13:12:05.087Z,94900.94
2022-08-17T13:14:35.331Z,94973.03
2022-08-17T13:17:09.917Z,94905.78
2022-08-17T13:19:49.582Z,94900.63
2022-08-17T13:22:20.026Z,94739.38
2022-08-17T13:24:54.539Z,94967.84
2022-08-17T13:27:25.148Z,94899.66
2022-08-17T13:29:59.629Z,94900.03
2022-08-17T13:32:44.067Z,94971.16
2022-08-17T13:35:45.899Z,94948.41
2022-08-17T13:38:40.768Z,94976.13
2022-08-17T13:41:08.882Z,94896.75
2022-08-17T13:43:45.774Z,94785.31
2022-08-17T13:46:21.517Z,94966.94
2022-08-17T13:48:59.711Z,94955.41
2022-08-17T13:51:35.090Z,94541.28
2022-08-17T13:54:20.130Z,94952.69
2022-08-17T13:57:04.102Z,94950.28
2022-08-17T13:59:54.348Z,94871.16
2022-08-17T14:02:28.405Z,94952.72
2022-08-17T14:04:57.354Z,94821.34
2022-08-17T14:07:38.009Z,94694.81
2022-08-17T14:10:11.945Z,94917.34
2022-08-17T14:12:41.638Z,94933.03
2022-08-17T14:15:11.147Z,94941.47
2022-08-17T14:17:40.504Z,94938.97
2022-08-17T14:20:12.200Z,94936.97
2022-08-17T14:22:44.682Z,94942.06
2022-08-17T14:25:15.236Z,94935.53
2022-08-17T14:27:52.777Z,94938.75
2022-08-17T14:30:24.239Z,94936.66
2022-08-17T14:32:54.326Z,94941.38
2022-08-17T14:35:24.451Z,94852.44
2022-08-17T14:37:54.118Z,94825.66
2022-08-17T14:40:24.694Z,94642.84
2022-08-17T14:42:55.263Z,94919.81
2022-08-17T14:45:30.487Z,94937.84
2022-08-17T14:48:04.173Z,94939.38
2022-08-17T14:50:35.774Z,94931.66
2022-08-17T14:53:05.569Z,94870.56
2022-08-17T14:55:33.713Z,94946.81
2022-08-17T14:58:01.718Z,94933.22
2022-08-17T15:00:29.684Z,94934.47
2022-08-17T15:03:00.354Z,94936.31
2022-08-17T15:05:32.392Z,94928.59
2022-08-17T15:08:00.930Z,94937.94
2022-08-17T15:10:31.093Z,94936.22
2022-08-17T15:13:00.422Z,94827.41
2022-08-17T15:15:29.528Z,94942.59
2022-08-17T15:17:58.364Z,94867.91
2022-08-17T15:20:31.030Z,94801.97
2022-08-17T15:22:59.444Z,94945.03
2022-08-17T15:25:30.408Z,94567.63
2022-08-17T15:27:58.798Z,94512.78
2022-08-17T15:30:27.696Z,94947.44
2022-08-17T15:32:57.583Z,94944.53
2022-08-17T15:35:29.180Z,94881.88
2022-08-17T15:38:10.569Z,94950.31
2022-08-17T15:40:42.097Z,94940.78
2022-08-17T15:43:11.799Z,94720.81
2022-08-17T15:45:40.499Z,94936.41
2022-08-17T15:48:08.958Z,94882.31
2022-08-17T15:50:37.986Z,94929.28
2022-08-17T15:53:07.397Z,94936.56
2022-08-17T15:55:36.698Z,94937.47
2022-08-17T15:58:04.929Z,94942.13
2022-08-17T16:00:49.356Z,94900.09
2022-08-17T16:03:56.026Z,94934.66
2022-08-17T16:06:09.763Z,94936.09
2022-08-17T16:08:43.863Z,94886.25
2022-08-17T16:11:12.415Z,94936.91
2022-08-17T16:13:41.668Z,94903.22
2022-08-17T16:16:16.178Z,94814.03
2022-08-17T16:18:45.514Z,94941.56
2022-08-17T16:21:29.718Z,94957.34
2022-08-17T16:24:12.728Z,94946.84
2022-08-17T16:26:43.262Z,94940.66
2022-08-17T16:29:11.656Z,94733.94
2022-08-17T16:31:41.875Z,94933.56
2022-08-17T16:34:15.834Z,94947.03
2022-08-17T16:36:55.796Z,94948.75
2022-08-17T16:39:27.051Z,94979.06
2022-08-17T16:41:55.925Z,94689.03
2022-08-17T16:44:24.202Z,94954.59
2022-08-17T16:46:52.154Z,94956.75
2022-08-17T16:49:35.146Z,94950.13
2022-08-17T16:52:08.165Z,94707.47
2022-08-17T16:54:39.239Z,94953.97
2022-08-17T16:57:07.251Z,94964.13
2022-08-17T16:59:42.385Z,94961.34
2022-08-17T17:02:15.585Z,94925.28
2022-08-17T17:04:51.885Z,94966.22
2022-08-17T17:07:45.301Z,94970.84
2022-08-17T17:10:18.043Z,94996.91
2022-08-17T17:13:01.334Z,94882.34
2022-08-17T17:15:41.516Z,94975.09
2022-08-17T17:18:14.824Z,94918.25
2022-08-17T17:20:48.776Z,94977.22
2022-08-17T17:23:29.052Z,94924.09
2022-08-17T17:26:10.312Z,94982.41
2022-08-17T17:28:46.390Z,94906.53
2022-08-17T17:31:18.110Z,94940.84
2022-08-17T17:33:50.702Z,94922.88
2022-08-17T17:36:25.589Z,94982.25
2022-08-17T17:38:56.645Z,94986.19
2022-08-17T17:41:42.722Z,94996.50
2022-08-17T17:44:17.880Z,94936.75
2022-08-17T17:46:52.454Z,95004.13
2022-08-17T17:49:20.535Z,95004.72
2022-08-17T17:52:09.264Z,95009.16
2022-08-17T17:54:52.277Z,95006.16
2022-08-17T17:57:28.888Z,94972.41
2022-08-17T18:00:08.192Z,94930.78
2022-08-17T18:02:51.899Z,95020.59
2022-08-17T18:05:48.532Z,95021.59
2022-08-17T18:08:40.270Z,94991.66
2022-08-17T18:11:24.198Z,95038.50
2022-08-17T18:14:06.986Z,95044.16
2022-08-17T18:16:35.908Z,95044.38
2022-08-17T18:19:03.872Z,94983.94
2022-08-17T18:21:38.846Z,95049.28
2022-08-17T18:24:10.437Z,94987.25
2022-08-17T18:26:46.197Z,95003.31
2022-08-17T18:29:31.536Z,94950.47
2022-08-17T18:32:22.782Z,95051.69
2022-08-17T18:34:54.726Z,95063.13
2022-08-17T18:37:42.630Z,95054.91
2022-08-17T18:40:40.629Z,95038.91
2022-08-17T18:43:14.754Z,95074.47
2022-08-17T18:45:48.664Z,95082.56
2022-08-17T18:48:27.566Z,94876.66
2022-08-17T18:50:58.856Z,95048.72
2022-08-17T18:53:41.030Z,94997.47
2022-08-17T18:56:27.286Z,95085.03
2022-08-17T18:59:03.667Z,95027.47
2022-08-17T19:01:53.381Z,95081.25
2022-08-17T19:04:34.596Z,94929.31
2022-08-17T19:07:11.264Z,95092.50
2022-08-17T19:09:43.849Z,95096.91
2022-08-17T19:12:26.938Z,94861.72
2022-08-17T19:14:57.916Z,95088.41
2022-08-17T19:17:35.410Z,95091.66
2022-08-17T19:20:09.989Z,95093.72
2022-08-17T19:22:50.994Z,95074.53
2022-08-17T19:25:24.009Z,94993.06
2022-08-17T19:27:58.822Z,95098.84
2022-08-17T19:30:27.885Z,95047.03
2022-08-17T19:32:58.409Z,95093.50
2022-08-17T19:35:30.991Z,95089.06
2022-08-17T19:38:12.916Z,95099.31
2022-08-17T19:40:54.131Z,95090.34
2022-08-17T19:43:31.571Z,94976.63
2022-08-17T19:46:07.957Z,95032.34
2022-08-17T19:48:47.191Z,95098.81
2022-08-17T19:51:20.279Z,95052.16
2022-08-17T19:54:05.841Z,95099.84
2022-08-17T19:56:42.925Z,95096.38
2022-08-17T19:59:16.993Z,94869.38
2022-08-17T20:01:50.155Z,95079.28
2022-08-17T20:04:32.479Z,95099.28
2022-08-17T20:07:05.196Z,95104.91
2022-08-17T20:09:37.928Z,95104.91
2022-08-17T20:12:11.674Z,95098.19
2022-08-17T20:14:53.250Z,95127.34
2022-08-17T20:17:23.295Z,95101.03
2022-08-17T20:19:59.405Z,95101.88
2022-08-17T20:22:49.643Z,95061.13
2022-08-17T20:25:30.468Z,95099.13
2022-08-17T20:28:06.738Z,95111.41
2022-08-17T20:30:40.393Z,95025.75
2022-08-17T20:33:23.344Z,95054.94
2022-08-17T20:36:06.447Z,95120.03
2022-08-17T20:38:43.865Z,95115.00
2022-08-17T20:41:15.642Z,95121.81
2022-08-17T20:43:51.018Z,95112.84
2022-08-17T20:46:47.757Z,95120.34
2022-08-17T20:49:24.436Z,95055.75
2022-08-17T20:52:01.675Z,95058.31
2022-08-17T20:54:49.926Z,95121.53
2022-08-17T20:57:54.577Z,95123.75
2022-08-17T21:00:44.847Z,95115.19
2022-08-17T21:03:52.286Z,95117.16
2022-08-17T21:06:23.969Z,95072.75
2022-08-17T21:08:58.696Z,95114.59
2022-08-17T21:12:04.620Z,95100.94
2022-08-17T21:14:59.756Z,95113.06
2022-08-17T21:17:51.393Z,95119.59
2022-08-17T21:20:32.440Z,95091.88
2022-08-17T21:23:22.823Z,95125.66
2022-08-17T21:26:25.568Z,94746.00
2022-08-17T21:29:30.210Z,95123.59
2022-08-17T21:32:24.561Z,95131.66
2022-08-17T21:35:30.146Z,95135.63
2022-08-17T21:38:05.138Z,95123.84
2022-08-17T21:40:35.347Z,95128.75
2022-08-17T21:43:20.127Z,95137.91
2022-08-17T21:45:58.698Z,95143.75
2022-08-17T21:48:29.370Z,94891.91
2022-08-17T21:51:01.022Z,95142.53
2022-08-17T21:53:36.618Z,95138.38
2022-08-17T21:56:05.697Z,95142.44
2022-08-17T21:58:40.386Z,95152.38
2022-08-17T22:01:23.848Z,95099.44
2022-08-17T22:03:58.949Z,95138.25
2022-08-17T22:06:30.627Z,95146.22
2022-08-17T22:09:11.858Z,95066.06
2022-08-17T22:11:52.688Z,95149.91
2022-08-17T22:14:25.723Z,95116.03
2022-08-17T22:17:14.746Z,95156.78
2022-08-17T22:19:45.439Z,95136.13
2022-08-17T22:22:26.472Z,95145.59
2022-08-17T22:24:57.531Z,95151.56
2022-08-17T22:28:01.506Z,95138.03
2022-08-17T22:30:35.618Z,95141.56
2022-08-17T22:33:31.503Z,95141.91
2022-08-17T22:36:15.081Z,95085.63
2022-08-17T22:38:43.877Z,95133.81
2022-08-17T22:41:41.300Z,95128.31
2022-08-17T22:44:25.541Z,95137.03
2022-08-17T22:46:59.892Z,95138.63
2022-08-17T22:49:32.136Z,95140.31
2022-08-17T22:52:29.134Z,95090.56
2022-08-17T22:55:26.025Z,95139.78
2022-08-17T22:58:08.091Z,95132.88
2022-08-17T23:00:39.797Z,95041.81
2022-08-17T23:03:13.403Z,95108.91
2022-08-17T23:05:45.181Z,95141.28
2022-08-17T23:08:14.126Z,95136.25
2022-08-17T23:10:43.237Z,95137.97
2022-08-17T23:13:13.047Z,95137.19
2022-08-17T23:15:42.175Z,95129.16
2022-08-17T23:18:11.713Z,95074.72
2022-08-17T23:20:41.942Z,95131.28
2022-08-17T23:23:12.633Z,95134.81
2022-08-17T23:25:44.598Z,95132.72
2022-08-17T23:28:12.876Z,95126.44
2022-08-17T23:30:45.139Z,95123.97
2022-08-17T23:33:21.371Z,95123.34
2022-08-17T23:35:49.640Z,95143.50
2022-08-17T23:38:17.819Z,95133.50
2022-08-17T23:40:46.151Z,95087.28
2022-08-17T23:43:23.327Z,95099.47
2022-08-17T23:45:53.666Z,95110.47
2022-08-17T23:48:28.440Z,95162.16
2022-08-17T23:51:05.988Z,95140.28
2022-08-17T23:53:36.329Z,95134.44
2022-08-17T23:56:10.006Z,95131.00
2022-08-17T23:58:39.679Z,95130.59
